Airfield :
LOGIN :

Register | Disclaimer

   EN    FR    IT 

 










Legend :    VFR   Marginal VFR   IFR   Intensive IFR   Very Intensive IFR
Visi :
Ceiling :
>= 8 km
>= 3000ft
5 to 8 km
1000 to 3000 ft
1500m to 5 km
500 to 1000 ft
800 to 1500m
200 to 500 ft
< 800m
< 200 ft
Symbols :   Thunderstorms  Fog  Heavy snow  Heavy precipitations  Wind > 20 kt
SIGMETs :     Misc.  Thunderstorms  Icing  Turbulence  Mountain Waves  Volcanic Ashes






- Airport Elevation : 70 ft
- IATA code : LEI


LEAM - Almeria

CURRENT METAR :
  • 261930Z 01005KT CAVOK 12/08 Q1024

EXPIRED METARs :
  • 261900Z 02005KT 9999 FEW035 12/09 Q1024
  • 261830Z 03003KT 9999 FEW035 13/10 Q1024
  • 261800Z 12001KT 9999 FEW035 14/10 Q1023
  • 261730Z 00000KT 9999 FEW040 15/10 Q1023
  • 261700Z VRB01KT 9999 FEW040 15/10 Q1023

TAF TAF LEAM
Valid from the 26 at 15:00 until the 27 at 15:00 UTC


261400Z 2615/2715 20006KT 9999 FEW035 TX16/2713Z TN09/2703Z
BECMG 2619/2621 34010KT



MET'MAP, your aeronautical weather chart ! - Copyright ORBIFLY December 2007 - Disclaimer

ORBIFLY MET'MAP TEAM :

Programming & Development : Alexandra Zaïnal
Concept & original design : Baudouin d'Aumeries
Assistance for programming : Marc-Olivier Méhu
Technical & hardware support : Manuel Goepfert

Contact : metmap@orbifly.com




SOURCES & CREDITS :

   NOAA